createdAt,value
2023-03-01T00:00:06.432Z,40.90
2023-03-01T00:02:34.379Z,35.25
2023-03-01T00:05:03.719Z,33.78
2023-03-01T00:07:31.735Z,34.28
2023-03-01T00:09:59.618Z,40.28
2023-03-01T00:12:28.743Z,37.10
2023-03-01T00:14:56.627Z,33.03
2023-03-01T00:17:24.517Z,40.15
2023-03-01T00:19:52.414Z,35.00
2023-03-01T00:22:21.637Z,38.22
2023-03-01T00:24:49.936Z,31.58
2023-03-01T00:27:17.852Z,34.70
2023-03-01T00:29:46.009Z,35.38
2023-03-01T00:32:14.397Z,37.80
2023-03-01T00:34:42.304Z,33.25
2023-03-01T00:37:10.172Z,33.15
2023-03-01T00:39:39.435Z,41.10
2023-03-01T00:42:07.329Z,35.38
2023-03-01T00:44:35.457Z,36.78
2023-03-01T00:47:03.397Z,33.03
2023-03-01T00:49:31.605Z,32.15
2023-03-01T00:51:59.574Z,39.28
2023-03-01T00:54:27.536Z,41.97
2023-03-01T00:56:56.822Z,38.05
2023-03-01T00:59:24.766Z,40.00
2023-03-01T01:01:52.690Z,34.97
2023-03-01T01:04:20.566Z,39.53
2023-03-01T01:06:48.769Z,34.40
2023-03-01T01:09:19.158Z,34.83
2023-03-01T01:11:48.314Z,38.92
2023-03-01T01:14:17.972Z,37.92
2023-03-01T01:16:45.938Z,38.63
2023-03-01T01:19:14.309Z,38.53
2023-03-01T01:21:44.104Z,36.33
2023-03-01T01:24:12.681Z,39.13
2023-03-01T01:26:40.652Z,43.63
2023-03-01T01:29:09.332Z,38.47
2023-03-01T01:31:40.463Z,37.88
2023-03-01T01:34:12.087Z,37.13
2023-03-01T01:36:39.979Z,36.35
2023-03-01T01:39:08.013Z,36.63
2023-03-01T01:41:35.913Z,35.70
2023-03-01T01:44:19.723Z,37.30
2023-03-01T01:46:52.650Z,49.35
2023-03-01T01:49:32.893Z,38.47
2023-03-01T01:52:09.665Z,39.08
2023-03-01T01:54:47.155Z,36.95
2023-03-01T01:57:20.102Z,40.42
2023-03-01T01:59:52.782Z,36.25
2023-03-01T02:02:22.841Z,49.67
2023-03-01T02:04:54.763Z,38.28
2023-03-01T02:07:24.765Z,37.72
2023-03-01T02:09:54.679Z,39.33
2023-03-01T02:12:25.528Z,35.10
2023-03-01T02:14:53.628Z,36.95
2023-03-01T02:17:23.598Z,41.33
2023-03-01T02:20:03.193Z,40.63
2023-03-01T02:22:33.913Z,39.45
2023-03-01T02:25:12.848Z,38.78
2023-03-01T02:27:48.472Z,40.65
2023-03-01T02:30:17.912Z,38.35
2023-03-01T02:32:45.412Z,35.78
2023-03-01T02:35:16.477Z,37.30
2023-03-01T02:37:46.073Z,40.17
2023-03-01T02:40:18.506Z,36.78
2023-03-01T02:42:51.890Z,43.75
2023-03-01T02:45:21.299Z,35.20
2023-03-01T02:47:49.305Z,35.30
2023-03-01T02:50:27.133Z,35.47
2023-03-01T02:52:59.672Z,33.97
2023-03-01T02:55:28.369Z,31.92
2023-03-01T02:57:57.798Z,35.17
2023-03-01T03:00:31.430Z,32.60
2023-03-01T03:02:59.409Z,35.05
2023-03-01T03:05:29.769Z,36.47
2023-03-01T03:07:58.768Z,35.22
2023-03-01T03:10:30.407Z,37.70
2023-03-01T03:13:00.182Z,36.88
2023-03-01T03:15:30.300Z,33.90
2023-03-01T03:17:59.424Z,34.25
2023-03-01T03:20:29.380Z,34.65
2023-03-01T03:22:59.222Z,37.92
2023-03-01T03:25:28.630Z,33.85
2023-03-01T03:27:58.961Z,33.40
2023-03-01T03:30:30.347Z,41.30
2023-03-01T03:32:59.167Z,37.72
2023-03-01T03:35:31.109Z,38.55
2023-03-01T03:38:07.136Z,42.17
2023-03-01T03:40:37.132Z,33.25
2023-03-01T03:43:07.211Z,38.25
2023-03-01T03:45:37.053Z,35.65
2023-03-01T03:48:07.382Z,35.13
2023-03-01T03:50:35.842Z,31.08
2023-03-01T03:53:04.809Z,37.28
2023-03-01T03:55:34.756Z,34.30
2023-03-01T03:58:07.726Z,33.70
2023-03-01T04:00:38.939Z,36.15
2023-03-01T04:03:07.298Z,38.35
2023-03-01T04:05:35.535Z,36.45
2023-03-01T04:08:08.107Z,38.72
2023-03-01T04:10:38.209Z,36.65
2023-03-01T04:13:06.876Z,36.83
2023-03-01T04:15:37.338Z,38.08
2023-03-01T04:18:06.058Z,37.47
2023-03-01T04:20:36.213Z,37.10
2023-03-01T04:23:11.622Z,39.20
2023-03-01T04:25:41.312Z,40.28
2023-03-01T04:28:09.792Z,41.15
2023-03-01T04:30:40.483Z,35.90
2023-03-01T04:33:10.278Z,37.83
2023-03-01T04:35:39.616Z,35.20
2023-03-01T04:38:07.996Z,37.75
2023-03-01T04:40:36.286Z,40.05
2023-03-01T04:43:05.472Z,50.22
2023-03-01T04:45:35.473Z,42.13
2023-03-01T04:48:05.630Z,35.00
2023-03-01T04:50:33.602Z,34.78
2023-03-01T04:53:01.472Z,38.17
2023-03-01T04:55:30.755Z,38.55
2023-03-01T04:57:58.796Z,45.38
2023-03-01T05:00:26.889Z,32.75
2023-03-01T05:02:56.264Z,37.15
2023-03-01T05:05:28.454Z,39.63
2023-03-01T05:07:58.141Z,40.55
2023-03-01T05:10:27.362Z,45.60
2023-03-01T05:12:55.341Z,43.28
2023-03-01T05:15:26.480Z,39.38
2023-03-01T05:17:55.328Z,42.05
2023-03-01T05:20:25.107Z,36.33
2023-03-01T05:22:53.908Z,38.75
2023-03-01T05:25:22.432Z,38.13
2023-03-01T05:27:50.639Z,41.47
2023-03-01T05:30:19.291Z,38.90
2023-03-01T05:32:49.217Z,46.13
2023-03-01T05:35:19.248Z,37.45
2023-03-01T05:37:50.302Z,39.38
2023-03-01T05:40:20.644Z,43.88
2023-03-01T05:42:50.420Z,38.65
2023-03-01T05:45:19.185Z,43.28
2023-03-01T05:47:49.061Z,40.10
2023-03-01T05:50:20.132Z,35.78
2023-03-01T05:52:51.061Z,44.53
2023-03-01T05:55:19.792Z,41.20
2023-03-01T05:57:47.999Z,43.88
2023-03-01T06:00:20.592Z,45.83
2023-03-01T06:02:48.475Z,40.20
2023-03-01T06:05:16.596Z,40.55
2023-03-01T06:07:44.935Z,47.15
2023-03-01T06:10:15.337Z,42.33
2023-03-01T06:12:44.691Z,39.78
2023-03-01T06:15:14.973Z,42.20
2023-03-01T06:17:45.387Z,44.45
2023-03-01T06:20:15.822Z,39.60
2023-03-01T06:22:44.345Z,43.85
2023-03-01T06:25:15.222Z,43.95
2023-03-01T06:27:43.987Z,40.70
2023-03-01T06:30:14.978Z,44.72
2023-03-01T06:32:43.846Z,42.20
2023-03-01T06:35:12.425Z,43.45
2023-03-01T06:37:40.990Z,43.85
2023-03-01T06:40:12.502Z,39.97
2023-03-01T06:42:44.245Z,39.40
2023-03-01T06:45:13.016Z,46.65
2023-03-01T06:47:41.078Z,42.03
2023-03-01T06:50:10.273Z,44.30
2023-03-01T06:52:38.414Z,37.03
2023-03-01T06:55:07.270Z,41.28
2023-03-01T06:57:35.215Z,39.38
2023-03-01T07:00:04.966Z,39.08
2023-03-01T07:02:33.066Z,47.63
2023-03-01T07:05:01.089Z,41.22
2023-03-01T07:07:29.150Z,42.05
2023-03-01T07:09:57.070Z,45.10
2023-03-01T07:12:24.975Z,41.88
2023-03-01T07:14:52.899Z,40.72
2023-03-01T07:17:22.149Z,44.92
2023-03-01T07:19:50.212Z,38.22
2023-03-01T07:22:18.138Z,41.60
2023-03-01T07:24:46.200Z,39.92
2023-03-01T07:27:16.343Z,46.28
2023-03-01T07:29:44.225Z,38.70
2023-03-01T07:32:12.810Z,36.60
2023-03-01T07:34:42.117Z,42.20
2023-03-01T07:37:10.283Z,41.35
2023-03-01T07:39:38.193Z,46.45
2023-03-01T07:42:06.116Z,41.97
2023-03-01T07:44:34.585Z,44.63
2023-03-01T07:47:02.500Z,36.95
2023-03-01T07:49:30.450Z,40.55
2023-03-01T07:51:59.681Z,42.03
2023-03-01T07:54:28.036Z,38.33
2023-03-01T07:56:56.354Z,40.13
2023-03-01T07:59:24.688Z,42.10
2023-03-01T08:01:52.604Z,41.35
2023-03-01T08:04:20.510Z,43.28
2023-03-01T08:06:48.447Z,39.65
2023-03-01T08:09:17.666Z,40.50
2023-03-01T08:11:45.578Z,42.00
2023-03-01T08:14:13.830Z,42.60
2023-03-01T08:16:41.928Z,40.92
2023-03-01T08:19:11.793Z,45.22
2023-03-01T08:21:39.974Z,42.33
2023-03-01T08:24:11.180Z,39.53
2023-03-01T08:26:40.450Z,47.17
2023-03-01T08:29:08.399Z,37.63
2023-03-01T08:31:38.368Z,38.10
2023-03-01T08:34:08.683Z,42.40
2023-03-01T08:36:39.274Z,36.78
2023-03-01T08:39:07.973Z,32.80
2023-03-01T08:41:35.847Z,31.10
2023-03-01T08:44:05.890Z,42.50
2023-03-01T08:46:37.919Z,36.92
2023-03-01T08:49:06.431Z,37.35
2023-03-01T08:51:37.656Z,39.97
2023-03-01T08:54:05.816Z,36.85
2023-03-01T08:56:33.981Z,34.78
2023-03-01T08:59:02.177Z,37.22
2023-03-01T09:01:31.814Z,37.55
2023-03-01T09:03:59.785Z,33.78
2023-03-01T09:06:27.994Z,33.67
2023-03-01T09:08:55.961Z,32.25
2023-03-01T09:11:24.335Z,32.72
2023-03-01T09:13:52.380Z,32.70
2023-03-01T09:16:22.636Z,30.23
2023-03-01T09:18:53.921Z,34.42
2023-03-01T09:21:38.676Z,37.42
2023-03-01T09:24:08.572Z,30.13
2023-03-01T09:26:36.463Z,36.70
2023-03-01T09:29:04.481Z,31.13
2023-03-01T09:31:32.496Z,32.92
2023-03-01T09:34:01.770Z,38.20
2023-03-01T09:36:30.124Z,36.72
2023-03-01T09:39:00.172Z,37.53
2023-03-01T09:41:44.358Z,34.60
2023-03-01T09:44:20.393Z,34.65
2023-03-01T09:46:48.595Z,36.40
2023-03-01T09:49:21.546Z,34.10
2023-03-01T09:51:59.694Z,41.58
2023-03-01T09:57:16.054Z,32.67
2023-03-01T10:00:05.441Z,36.92
2023-03-01T10:02:43.752Z,37.55
2023-03-01T10:05:27.470Z,31.48
2023-03-01T10:08:07.120Z,32.00
2023-03-01T10:10:38.413Z,29.92
2023-03-01T10:13:17.171Z,31.02
2023-03-01T10:15:49.575Z,32.33
2023-03-01T10:18:21.212Z,34.10
2023-03-01T10:20:55.313Z,38.00
2023-03-01T10:23:25.236Z,28.80
2023-03-01T10:26:06.304Z,28.77
2023-03-01T10:28:46.735Z,27.33
2023-03-01T10:31:17.185Z,31.10
2023-03-01T10:33:45.125Z,28.88
2023-03-01T10:36:14.517Z,26.33
2023-03-01T10:38:54.911Z,28.90
2023-03-01T10:41:25.309Z,27.63
2023-03-01T10:43:55.598Z,27.58
2023-03-01T10:46:28.487Z,25.70
2023-03-01T10:49:18.640Z,28.63
2023-03-01T10:51:50.209Z,26.95
2023-03-01T10:54:21.072Z,27.48
2023-03-01T10:56:51.378Z,25.35
2023-03-01T10:59:27.244Z,28.20
2023-03-01T11:02:25.133Z,33.75
2023-03-01T11:05:18.544Z,30.55
2023-03-01T11:07:52.709Z,27.65
2023-03-01T11:10:23.219Z,30.75
2023-03-01T11:12:52.688Z,26.27
2023-03-01T11:15:26.511Z,28.33
2023-03-01T11:18:03.147Z,27.00
2023-03-01T11:20:38.443Z,27.95
2023-03-01T11:23:12.800Z,28.90
2023-03-01T11:25:44.007Z,38.65
2023-03-01T11:28:16.259Z,27.90
2023-03-01T11:31:06.821Z,35.75
2023-03-01T11:33:43.338Z,31.92
2023-03-01T11:36:18.658Z,29.17
2023-03-01T11:38:49.322Z,31.25
2023-03-01T11:41:20.276Z,27.73
2023-03-01T11:43:54.387Z,27.02
2023-03-01T11:46:56.747Z,33.10
2023-03-01T11:49:41.791Z,31.38
2023-03-01T11:52:23.365Z,27.67
2023-03-01T11:55:07.181Z,28.10
2023-03-01T11:57:51.697Z,27.90
2023-03-01T12:00:38.582Z,34.17
2023-03-01T12:03:28.352Z,31.17
2023-03-01T12:06:25.041Z,28.10
2023-03-01T12:09:04.694Z,27.50
2023-03-01T12:11:46.529Z,33.58
2023-03-01T12:14:41.075Z,26.13
2023-03-01T12:17:39.486Z,30.70
2023-03-01T12:20:22.548Z,28.08
2023-03-01T12:23:21.047Z,28.63
2023-03-01T12:25:56.651Z,32.80
2023-03-01T12:28:45.758Z,24.88
2023-03-01T12:31:48.975Z,25.00
2023-03-01T12:34:37.343Z,25.63
2023-03-01T12:37:22.671Z,24.55
2023-03-01T12:40:03.968Z,26.55
2023-03-01T12:42:39.561Z,26.65
2023-03-01T12:45:27.660Z,22.67
2023-03-01T12:48:10.925Z,26.35
2023-03-01T12:50:43.339Z,26.10
2023-03-01T12:53:25.259Z,21.42
2023-03-01T12:55:55.967Z,23.92
2023-03-01T12:58:40.238Z,21.67
2023-03-01T13:01:24.982Z,23.40
2023-03-01T13:04:14.770Z,20.27
2023-03-01T13:06:52.599Z,20.38
2023-03-01T13:09:27.468Z,22.80
2023-03-01T13:11:55.436Z,19.75
2023-03-01T13:14:46.340Z,20.20
2023-03-01T13:17:42.770Z,23.38
2023-03-01T13:20:19.349Z,19.98
2023-03-01T13:22:54.799Z,20.08
2023-03-01T13:25:27.676Z,21.85
2023-03-01T13:28:39.159Z,17.98
2023-03-01T13:31:08.112Z,21.38
2023-03-01T13:33:47.720Z,19.88
2023-03-01T13:36:50.046Z,18.42
2023-03-01T13:39:36.653Z,17.33
2023-03-01T13:42:04.722Z,22.10
2023-03-01T13:44:36.980Z,21.10
2023-03-01T13:47:18.480Z,17.05
2023-03-01T13:49:51.527Z,20.05
2023-03-01T13:52:37.307Z,24.10
2023-03-01T13:55:08.171Z,19.60
2023-03-01T13:57:41.118Z,19.40
2023-03-01T14:00:34.802Z,19.33
2023-03-01T14:03:15.126Z,20.80
2023-03-01T14:05:46.296Z,22.10
2023-03-01T14:08:23.478Z,21.50
2023-03-01T14:11:04.170Z,19.17
2023-03-01T14:13:49.847Z,21.20
2023-03-01T14:16:31.515Z,22.20
2023-03-01T14:19:20.321Z,21.55
2023-03-01T14:22:06.337Z,25.70
2023-03-01T14:24:47.001Z,22.60
2023-03-01T14:27:16.120Z,24.75
2023-03-01T14:29:44.655Z,25.50
2023-03-01T14:32:14.549Z,25.02
2023-03-01T14:34:46.503Z,26.92
2023-03-01T14:37:22.468Z,27.92
2023-03-01T14:39:50.583Z,27.42
2023-03-01T14:42:19.529Z,32.17
2023-03-01T14:44:49.633Z,24.52
2023-03-01T14:47:27.323Z,30.95
2023-03-01T14:50:00.164Z,29.33
2023-03-01T14:52:35.757Z,26.02
2023-03-01T14:55:07.258Z,30.40
2023-03-01T14:57:35.346Z,29.20
2023-03-01T15:00:07.216Z,27.75
2023-03-01T15:02:36.247Z,32.05
2023-03-01T15:05:08.624Z,30.90
2023-03-01T15:07:42.458Z,39.92
2023-03-01T15:10:21.717Z,29.15
2023-03-01T15:12:49.786Z,30.02
2023-03-01T15:15:41.466Z,30.95
2023-03-01T15:18:19.141Z,38.10
2023-03-01T15:20:48.040Z,32.22
2023-03-01T15:23:24.066Z,31.02
2023-03-01T15:25:58.457Z,37.55
2023-03-01T15:28:28.574Z,31.52
2023-03-01T15:31:02.292Z,30.65
2023-03-01T15:33:37.014Z,30.98
2023-03-01T15:36:21.175Z,32.35
2023-03-01T15:38:56.409Z,37.78
2023-03-01T15:41:26.589Z,37.70
2023-03-01T15:43:56.581Z,33.50
2023-03-01T15:46:28.450Z,32.20
2023-03-01T15:49:00.055Z,35.20
2023-03-01T15:51:33.905Z,32.97
2023-03-01T15:54:07.067Z,34.47
2023-03-01T15:56:35.045Z,36.25
2023-03-01T15:59:04.324Z,34.70
2023-03-01T16:01:35.165Z,36.97
2023-03-01T16:04:03.227Z,34.33
2023-03-01T16:06:32.435Z,34.03
2023-03-01T16:09:00.460Z,33.28
2023-03-01T16:11:29.774Z,38.40
2023-03-01T16:13:57.795Z,37.88
2023-03-01T16:16:25.894Z,32.05
2023-03-01T16:18:55.715Z,36.30
2023-03-01T16:21:25.272Z,29.77
2023-03-01T16:23:54.096Z,37.33
2023-03-01T16:26:22.238Z,44.70
2023-03-01T16:28:51.478Z,41.42
2023-03-01T16:31:28.865Z,38.78
2023-03-01T16:33:58.009Z,36.40
2023-03-01T16:36:29.074Z,41.55
2023-03-01T16:38:57.537Z,35.78
2023-03-01T16:41:26.277Z,36.28
2023-03-01T16:43:55.545Z,35.40
2023-03-01T16:46:26.520Z,36.10
2023-03-01T16:48:54.838Z,35.95
2023-03-01T16:51:24.010Z,37.75
2023-03-01T16:53:53.067Z,36.97
2023-03-01T16:56:21.426Z,40.17
2023-03-01T16:58:49.386Z,39.13
2023-03-01T17:01:20.988Z,34.53
2023-03-01T17:03:51.114Z,36.42
2023-03-01T17:06:23.180Z,39.03
2023-03-01T17:08:51.180Z,37.40
2023-03-01T17:11:21.009Z,36.75
2023-03-01T17:13:49.398Z,38.30
2023-03-01T17:16:20.659Z,40.42
2023-03-01T17:18:48.999Z,39.67
2023-03-01T17:21:17.625Z,39.90
2023-03-01T17:23:46.884Z,38.03
2023-03-01T17:26:14.900Z,42.00
2023-03-01T17:28:43.864Z,35.35
2023-03-01T17:31:11.955Z,39.00
2023-03-01T17:33:41.217Z,41.13
2023-03-01T17:36:09.269Z,35.13
2023-03-01T17:38:37.661Z,38.75
2023-03-01T17:41:06.193Z,37.50
2023-03-01T17:43:35.188Z,37.00
2023-03-01T17:46:03.358Z,38.67
2023-03-01T17:48:31.387Z,37.50
2023-03-01T17:51:00.845Z,40.67
2023-03-01T17:53:28.736Z,39.58
2023-03-01T17:56:01.817Z,48.65
2023-03-01T17:58:30.087Z,46.97
2023-03-01T18:00:58.015Z,54.53
2023-03-01T18:03:25.989Z,55.28
2023-03-01T18:05:53.895Z,50.50
2023-03-01T18:08:23.120Z,47.95
2023-03-01T18:10:58.690Z,44.88
2023-03-01T18:13:26.682Z,55.85
2023-03-01T18:16:00.741Z,51.22
2023-03-01T18:18:28.997Z,41.38
2023-03-01T18:20:57.807Z,45.38
2023-03-01T18:23:27.654Z,39.67
2023-03-01T18:25:59.376Z,45.13
2023-03-01T18:28:27.813Z,42.03
2023-03-01T18:30:58.781Z,42.03
2023-03-01T18:33:27.202Z,41.10
2023-03-01T18:35:55.934Z,39.53
2023-03-01T18:38:24.039Z,45.13
2023-03-01T18:40:54.215Z,48.88
2023-03-01T18:43:22.284Z,47.17
2023-03-01T18:45:56.433Z,38.70
2023-03-01T18:48:24.384Z,43.45
2023-03-01T18:50:52.728Z,43.85
2023-03-01T18:53:20.670Z,46.22
2023-03-01T18:55:48.620Z,46.20
2023-03-01T18:58:17.945Z,42.95
2023-03-01T19:00:45.864Z,37.15
2023-03-01T19:03:13.788Z,36.72
2023-03-01T19:05:42.666Z,38.65
2023-03-01T19:08:10.512Z,47.55
2023-03-01T19:10:38.491Z,37.85
2023-03-01T19:13:06.370Z,41.05
2023-03-01T19:15:35.831Z,36.75
2023-03-01T19:18:05.554Z,39.17
2023-03-01T19:20:33.452Z,40.20
2023-03-01T19:23:01.384Z,39.75
2023-03-01T19:25:29.262Z,44.03
2023-03-01T19:27:57.133Z,53.30
2023-03-01T19:30:27.174Z,48.45
2023-03-01T19:32:56.437Z,44.88
2023-03-01T19:35:24.573Z,39.47
2023-03-01T19:37:52.478Z,48.08
2023-03-01T19:40:20.616Z,39.90
2023-03-01T19:42:48.479Z,38.15
2023-03-01T19:45:22.454Z,44.45
2023-03-01T19:47:53.764Z,41.92
2023-03-01T19:50:23.058Z,46.97
2023-03-01T19:52:51.357Z,45.67
2023-03-01T19:55:19.382Z,40.88
2023-03-01T19:57:47.265Z,43.15
2023-03-01T20:00:17.089Z,51.22
2023-03-01T20:02:45.243Z,45.53
2023-03-01T20:05:13.180Z,47.30
2023-03-01T20:07:44.481Z,42.08
2023-03-01T20:10:13.626Z,46.08
2023-03-01T20:12:41.600Z,51.40
2023-03-01T20:15:10.334Z,50.20
2023-03-01T20:17:38.488Z,45.60
2023-03-01T20:20:07.207Z,50.35
2023-03-01T20:22:35.074Z,45.22
2023-03-01T20:25:04.877Z,44.88
2023-03-01T20:27:33.123Z,46.83
2023-03-01T20:30:01.050Z,53.13
2023-03-01T20:32:29.557Z,50.72
2023-03-01T20:34:57.541Z,49.83
2023-03-01T20:37:25.450Z,45.78
2023-03-01T20:39:53.347Z,45.70
2023-03-01T20:42:22.604Z,51.78
2023-03-01T20:44:50.594Z,43.72
2023-03-01T20:47:20.398Z,46.80
2023-03-01T20:49:48.340Z,46.20
2023-03-01T20:52:16.250Z,47.05
2023-03-01T20:54:45.460Z,49.08
2023-03-01T20:57:13.390Z,49.78
2023-03-01T20:59:42.774Z,45.70
2023-03-01T21:02:11.525Z,51.10
2023-03-01T21:04:39.537Z,52.90
2023-03-01T21:07:07.501Z,50.03
2023-03-01T21:09:35.429Z,50.85
2023-03-01T21:12:04.196Z,47.33
2023-03-01T21:14:42.259Z,48.83
2023-03-01T21:19:44.920Z,49.75
2023-03-01T21:22:14.574Z,47.42
2023-03-01T21:24:42.764Z,50.83
2023-03-01T21:27:11.060Z,49.22
2023-03-01T21:29:40.245Z,48.15
2023-03-01T21:32:09.631Z,46.30
2023-03-01T21:34:39.749Z,46.17
2023-03-01T21:37:08.699Z,54.15
2023-03-01T21:39:36.634Z,48.80
2023-03-01T21:42:05.978Z,46.00
2023-03-01T21:44:34.390Z,49.42
2023-03-01T21:47:02.304Z,51.75
2023-03-01T21:49:30.246Z,45.58
2023-03-01T21:51:59.470Z,48.83
2023-03-01T21:54:27.825Z,50.85
2023-03-01T21:56:55.758Z,46.08
2023-03-01T21:59:25.225Z,54.22
2023-03-01T22:01:53.565Z,51.33
2023-03-01T22:04:24.538Z,57.60
2023-03-01T22:06:54.368Z,57.70
2023-03-01T22:09:24.915Z,52.00
2023-03-01T22:11:58.363Z,49.80
2023-03-01T22:14:26.514Z,55.78
2023-03-01T22:16:54.529Z,53.63
2023-03-01T22:19:23.103Z,59.65
2023-03-01T22:21:53.183Z,49.72
2023-03-01T22:24:24.984Z,49.90
2023-03-01T22:26:53.896Z,50.25
2023-03-01T22:29:23.963Z,53.60
2023-03-01T22:31:52.651Z,53.67
2023-03-01T22:34:21.017Z,48.95
2023-03-01T22:36:49.739Z,53.53
2023-03-01T22:39:19.547Z,50.92
2023-03-01T22:41:50.132Z,48.47
2023-03-01T22:44:20.170Z,53.47
2023-03-01T22:46:48.385Z,54.78
2023-03-01T22:49:16.436Z,50.85
2023-03-01T22:51:47.433Z,51.53
2023-03-01T22:54:16.293Z,51.20
2023-03-01T22:56:44.845Z,50.83
2023-03-01T22:59:15.859Z,51.83
2023-03-01T23:01:47.615Z,49.72
2023-03-01T23:04:16.048Z,47.80
2023-03-01T23:06:51.749Z,51.78
2023-03-01T23:09:22.659Z,57.55
2023-03-01T23:11:51.671Z,49.30
2023-03-01T23:14:22.134Z,50.42
2023-03-01T23:16:50.782Z,52.75
2023-03-01T23:19:18.925Z,56.55
2023-03-01T23:21:50.109Z,49.17
2023-03-01T23:24:19.766Z,49.78
2023-03-01T23:26:51.855Z,51.67
2023-03-01T23:29:21.177Z,52.10
2023-03-01T23:31:49.418Z,46.53
2023-03-01T23:34:17.454Z,51.75
2023-03-01T23:36:45.920Z,47.58
2023-03-01T23:39:15.112Z,54.08
2023-03-01T23:41:43.186Z,51.75
2023-03-01T23:44:16.056Z,52.10
2023-03-01T23:46:46.680Z,52.55
2023-03-01T23:49:17.175Z,53.08
2023-03-01T23:51:47.661Z,50.38
2023-03-01T23:54:18.286Z,50.33
2023-03-01T23:56:46.918Z,55.33
2023-03-01T23:59:17.124Z,50.13
